createdAt,value
2023-04-21T00:01:48.958Z,11.41
2023-04-21T00:04:15.763Z,11.41
2023-04-21T00:06:42.726Z,11.42
2023-04-21T00:09:11.053Z,11.42
2023-04-21T00:11:37.953Z,11.47
2023-04-21T00:14:04.536Z,11.41
2023-04-21T00:16:31.126Z,11.40
2023-04-21T00:18:58.114Z,11.42
2023-04-21T00:21:25.200Z,11.43
2023-04-21T00:23:51.781Z,11.43
2023-04-21T00:26:18.272Z,11.39
2023-04-21T00:28:44.728Z,11.42
2023-04-21T00:31:11.264Z,11.38
2023-04-21T00:33:37.862Z,11.40
2023-04-21T00:36:04.702Z,11.44
2023-04-21T00:38:31.172Z,11.46
2023-04-21T00:40:57.629Z,11.46
2023-04-21T00:43:25.818Z,11.46
2023-04-21T00:45:52.404Z,11.43
2023-04-21T00:48:18.958Z,11.43
2023-04-21T00:50:45.752Z,11.42
2023-04-21T00:53:12.865Z,11.48
2023-04-21T00:55:39.562Z,11.45
2023-04-21T00:58:06.103Z,11.40
2023-04-21T01:00:32.634Z,11.36
2023-04-21T01:03:01.196Z,11.41
2023-04-21T01:05:27.837Z,11.43
2023-04-21T01:07:54.365Z,11.40
2023-04-21T01:10:20.863Z,11.40
2023-04-21T01:12:48.087Z,11.36
2023-04-21T01:15:17.326Z,11.41
2023-04-21T01:17:44.226Z,11.44
2023-04-21T01:20:14.339Z,11.46
2023-04-21T01:22:42.577Z,11.47
2023-04-21T01:25:10.127Z,11.49
2023-04-21T01:27:37.144Z,11.48
2023-04-21T01:30:05.668Z,11.51
2023-04-21T01:32:32.339Z,11.51
2023-04-21T01:34:59.436Z,11.54
2023-04-21T01:37:29.553Z,11.51
2023-04-21T01:39:58.701Z,11.54
2023-04-21T01:42:27.712Z,11.60
2023-04-21T01:44:54.906Z,11.54
2023-04-21T01:47:22.233Z,11.60
2023-04-21T01:49:48.821Z,11.61
2023-04-21T01:52:15.463Z,11.62
2023-04-21T01:54:41.973Z,11.60
2023-04-21T01:57:08.638Z,11.56
2023-04-21T01:59:35.249Z,11.57
2023-04-21T02:02:01.794Z,11.56
2023-04-21T02:04:28.444Z,11.51
2023-04-21T02:06:55.021Z,11.51
2023-04-21T02:09:21.770Z,11.51
2023-04-21T02:11:48.476Z,11.47
2023-04-21T02:14:14.942Z,11.51
2023-04-21T02:16:41.489Z,11.54
2023-04-21T02:19:08.219Z,11.54
2023-04-21T02:21:34.695Z,11.60
2023-04-21T02:24:01.161Z,11.65
2023-04-21T02:26:27.631Z,11.66
2023-04-21T02:28:54.147Z,11.61
2023-04-21T02:31:20.952Z,11.61
2023-04-21T02:33:47.628Z,11.67
2023-04-21T02:36:14.171Z,11.69
2023-04-21T02:38:40.676Z,11.65
2023-04-21T02:41:07.075Z,11.69
2023-04-21T02:43:33.631Z,11.61
2023-04-21T02:46:00.048Z,11.60
2023-04-21T02:48:26.854Z,11.59
2023-04-21T02:50:53.409Z,11.58
2023-04-21T02:53:20.843Z,11.63
2023-04-21T02:55:47.562Z,11.61
2023-04-21T02:58:14.021Z,11.65
2023-04-21T03:00:40.704Z,11.64
2023-04-21T03:03:07.840Z,11.64
2023-04-21T03:05:34.375Z,11.71
2023-04-21T03:08:00.773Z,11.77
2023-04-21T03:10:27.270Z,11.75
2023-04-21T03:12:53.829Z,11.75
2023-04-21T03:15:20.955Z,11.76
2023-04-21T03:17:47.408Z,11.77
2023-04-21T03:20:13.934Z,11.80
2023-04-21T03:22:40.426Z,11.70
2023-04-21T03:25:07.588Z,11.67
2023-04-21T03:27:34.891Z,11.64
2023-04-21T03:30:01.375Z,11.61
2023-04-21T03:32:27.911Z,11.63
2023-04-21T03:34:54.377Z,11.59
2023-04-21T03:37:20.859Z,11.60
2023-04-21T03:39:47.315Z,11.59
2023-04-21T03:42:13.774Z,11.64
2023-04-21T03:44:40.387Z,11.59
2023-04-21T03:47:07.823Z,11.57
2023-04-21T03:49:35.044Z,11.57
2023-04-21T03:52:01.634Z,11.56
2023-04-21T03:54:28.094Z,11.56
2023-04-21T03:56:54.536Z,11.61
2023-04-21T03:59:21.458Z,11.69
2023-04-21T04:01:48.060Z,11.69
2023-04-21T04:04:14.669Z,11.73
2023-04-21T04:06:41.687Z,11.69
2023-04-21T04:09:08.978Z,11.63
2023-04-21T04:11:35.487Z,11.62
2023-04-21T04:14:01.941Z,11.61
2023-04-21T04:16:29.087Z,11.56
2023-04-21T04:18:56.405Z,11.55
2023-04-21T04:21:23.009Z,11.60
2023-04-21T04:23:51.721Z,11.64
2023-04-21T04:26:18.695Z,11.60
2023-04-21T04:28:45.656Z,11.58
2023-04-21T04:31:13.644Z,11.56
2023-04-21T04:33:44.051Z,11.62
2023-04-21T04:36:12.021Z,11.62
2023-04-21T04:38:38.645Z,11.66
2023-04-21T04:41:06.219Z,11.73
2023-04-21T04:43:33.515Z,11.77
2023-04-21T04:46:00.197Z,11.78
2023-04-21T04:48:26.611Z,11.79
2023-04-21T04:50:53.158Z,11.81
2023-04-21T04:53:19.705Z,11.82
2023-04-21T04:55:47.160Z,11.80
2023-04-21T04:58:13.936Z,11.83
2023-04-21T05:00:40.514Z,11.82
2023-04-21T05:03:07.133Z,11.86
2023-04-21T05:05:33.654Z,11.77
2023-04-21T05:08:00.163Z,11.79
2023-04-21T05:10:26.639Z,11.84
2023-04-21T05:12:53.118Z,11.87
2023-04-21T05:15:19.593Z,11.79
2023-04-21T05:17:45.997Z,11.79
2023-04-21T05:20:12.704Z,11.86
2023-04-21T05:22:39.644Z,11.85
2023-04-21T05:25:06.845Z,11.89
2023-04-21T05:27:34.095Z,11.97
2023-04-21T05:30:00.839Z,12.01
2023-04-21T05:32:27.519Z,12.04
2023-04-21T05:34:54.059Z,12.08
2023-04-21T05:37:20.731Z,12.04
2023-04-21T05:39:47.150Z,12.00
2023-04-21T05:42:13.527Z,12.01
2023-04-21T05:44:40.031Z,12.03
2023-04-21T05:47:07.836Z,11.92
2023-04-21T05:49:34.300Z,11.92
2023-04-21T05:52:00.752Z,11.91
2023-04-21T05:54:27.175Z,11.89
2023-04-21T05:56:53.554Z,11.98
2023-04-21T05:59:19.943Z,11.98
2023-04-21T06:01:46.575Z,12.06
2023-04-21T06:04:13.302Z,12.11
2023-04-21T06:06:39.835Z,12.05
2023-04-21T06:09:07.861Z,12.00
2023-04-21T06:11:34.316Z,12.06
2023-04-21T06:14:01.751Z,12.15
2023-04-21T06:16:28.285Z,12.12
2023-04-21T06:18:54.832Z,12.12
2023-04-21T06:21:21.242Z,12.12
2023-04-21T06:23:47.647Z,12.13
2023-04-21T06:26:14.119Z,12.17
2023-04-21T06:28:40.818Z,12.19
2023-04-21T06:31:09.671Z,12.18
2023-04-21T06:33:36.365Z,12.18
2023-04-21T06:36:02.887Z,12.29
2023-04-21T06:38:29.332Z,12.38
2023-04-21T06:40:55.935Z,12.36
2023-04-21T06:43:22.359Z,12.38
2023-04-21T06:45:48.805Z,12.51
2023-04-21T06:48:15.339Z,12.59
2023-04-21T06:50:44.317Z,12.66
2023-04-21T06:53:14.110Z,12.71
2023-04-21T06:55:40.634Z,12.77
2023-04-21T06:58:07.124Z,12.79
2023-04-21T07:00:33.610Z,12.80
2023-04-21T07:03:00.070Z,12.87
2023-04-21T07:05:26.573Z,12.85
2023-04-21T07:07:55.788Z,12.93
2023-04-21T07:10:22.253Z,12.85
2023-04-21T07:12:48.698Z,12.88
2023-04-21T07:15:15.243Z,12.93
2023-04-21T07:17:41.699Z,12.95
2023-04-21T07:20:08.731Z,13.00
2023-04-21T07:22:36.138Z,13.04
2023-04-21T07:25:06.389Z,13.12
2023-04-21T07:27:38.785Z,13.13
2023-04-21T07:30:05.923Z,13.24
2023-04-21T07:32:33.747Z,13.32
2023-04-21T07:35:01.865Z,13.39
2023-04-21T07:37:28.752Z,13.44
2023-04-21T07:39:55.291Z,13.37
2023-04-21T07:42:22.399Z,13.40
2023-04-21T07:44:49.130Z,13.52
2023-04-21T07:47:15.613Z,13.51
2023-04-21T07:49:42.258Z,13.54
2023-04-21T07:52:09.118Z,13.54
2023-04-21T07:54:36.102Z,13.48
2023-04-21T07:57:03.035Z,13.59
2023-04-21T07:59:30.030Z,13.67
2023-04-21T08:01:57.260Z,13.85
2023-04-21T08:04:24.026Z,13.99
2023-04-21T08:06:50.916Z,13.90
2023-04-21T08:09:17.712Z,14.01
2023-04-21T08:11:44.288Z,14.04
2023-04-21T08:14:11.834Z,13.96
2023-04-21T08:16:39.037Z,13.88
2023-04-21T08:19:07.176Z,13.83
2023-04-21T08:21:33.987Z,13.81
2023-04-21T08:24:01.048Z,13.81
2023-04-21T08:26:30.006Z,13.76
2023-04-21T08:28:58.141Z,13.75
2023-04-21T08:31:24.654Z,13.78
2023-04-21T08:34:01.311Z,13.83
2023-04-21T08:36:30.371Z,13.79
2023-04-21T08:38:57.822Z,13.79
2023-04-21T08:41:25.613Z,13.79
2023-04-21T08:43:53.334Z,13.74
2023-04-21T08:46:20.076Z,13.68
2023-04-21T08:48:47.471Z,13.67
2023-04-21T08:51:21.203Z,13.70
2023-04-21T08:53:47.859Z,13.76
2023-04-21T08:56:14.801Z,13.81
2023-04-21T08:58:41.773Z,13.82
2023-04-21T09:01:08.466Z,13.84
2023-04-21T09:03:35.220Z,13.87
2023-04-21T09:06:07.793Z,13.98
2023-04-21T09:08:38.316Z,14.01
2023-04-21T09:11:04.779Z,13.98
2023-04-21T09:13:37.865Z,14.04
2023-04-21T09:16:14.749Z,14.05
2023-04-21T09:18:44.081Z,14.07
2023-04-21T09:21:20.440Z,14.16
2023-04-21T09:23:55.470Z,14.31
2023-04-21T09:26:23.238Z,14.61
2023-04-21T09:28:51.161Z,14.82
2023-04-21T09:31:24.878Z,14.75
2023-04-21T09:33:59.556Z,14.86
2023-04-21T09:36:30.397Z,15.00
2023-04-21T09:39:24.310Z,15.03
2023-04-21T09:41:45.940Z,15.05
2023-04-21T09:44:12.461Z,15.34
2023-04-21T09:46:43.549Z,15.59
2023-04-21T09:49:13.711Z,15.84
2023-04-21T09:52:06.082Z,15.76
2023-04-21T09:54:34.561Z,15.74
2023-04-21T09:57:02.712Z,15.63
2023-04-21T09:59:45.001Z,15.46
2023-04-21T10:02:12.830Z,15.43
2023-04-21T10:04:42.592Z,15.41
2023-04-21T10:07:10.878Z,15.52
2023-04-21T10:09:42.935Z,15.61
2023-04-21T10:12:10.310Z,15.78
2023-04-21T10:14:36.767Z,16.00
2023-04-21T10:17:09.816Z,16.21
2023-04-21T10:19:41.583Z,16.04
2023-04-21T10:22:09.713Z,15.91
2023-04-21T10:24:41.305Z,15.91
2023-04-21T10:27:12.787Z,15.92
2023-04-21T10:29:55.321Z,15.90
2023-04-21T10:33:05.273Z,16.09
2023-04-21T10:36:01.597Z,16.34
2023-04-21T10:39:00.925Z,16.34
2023-04-21T10:41:32.535Z,16.33
2023-04-21T10:44:00.475Z,16.33
2023-04-21T10:46:34.984Z,16.08
2023-04-21T10:49:11.840Z,15.91
2023-04-21T10:52:02.944Z,15.91
2023-04-21T10:54:42.159Z,15.83
2023-04-21T10:57:12.778Z,15.87
2023-04-21T10:59:39.691Z,16.13
2023-04-21T11:02:13.886Z,16.37
2023-04-21T11:04:45.271Z,16.40
2023-04-21T11:07:17.497Z,16.38
2023-04-21T11:09:45.842Z,16.18
2023-04-21T11:12:20.120Z,16.14
2023-04-21T11:14:50.574Z,16.21
2023-04-21T11:17:19.699Z,16.11
2023-04-21T11:19:57.906Z,16.15
2023-04-21T11:22:26.303Z,16.21
2023-04-21T11:24:56.976Z,16.48
2023-04-21T11:27:26.132Z,16.55
2023-04-21T11:29:52.623Z,16.40
2023-04-21T11:32:19.235Z,16.28
2023-04-21T11:34:46.158Z,16.24
2023-04-21T11:37:24.835Z,16.25
2023-04-21T11:40:00.129Z,16.27
2023-04-21T11:42:27.960Z,16.30
2023-04-21T11:45:05.301Z,16.39
2023-04-21T11:47:31.847Z,16.41
2023-04-21T11:50:00.890Z,16.46
2023-04-21T11:52:37.318Z,16.60
2023-04-21T11:55:16.124Z,16.65
2023-04-21T11:57:42.525Z,16.70
2023-04-21T12:00:15.172Z,16.97
2023-04-21T12:02:42.781Z,16.96
2023-04-21T12:05:11.752Z,16.96
2023-04-21T12:07:41.773Z,16.96
2023-04-21T12:10:14.222Z,16.74
2023-04-21T12:12:42.400Z,16.70
2023-04-21T12:15:10.984Z,16.70
2023-04-21T12:17:48.466Z,16.62
2023-04-21T12:20:20.547Z,16.62
2023-04-21T12:22:47.820Z,16.61
2023-04-21T12:25:14.390Z,16.64
2023-04-21T12:27:51.230Z,16.78
2023-04-21T12:30:18.808Z,16.90
2023-04-21T12:32:46.434Z,17.00
2023-04-21T12:35:13.124Z,17.12
2023-04-21T12:37:39.540Z,17.02
2023-04-21T12:40:07.918Z,16.87
2023-04-21T12:42:36.702Z,16.96
2023-04-21T12:45:05.336Z,16.97
2023-04-21T12:47:31.904Z,17.22
2023-04-21T12:49:58.422Z,17.28
2023-04-21T12:52:24.858Z,17.22
2023-04-21T12:54:51.319Z,17.30
2023-04-21T12:57:17.876Z,17.33
2023-04-21T12:59:46.356Z,17.12
2023-04-21T13:02:13.254Z,17.17
2023-04-21T13:04:42.021Z,17.41
2023-04-21T13:07:09.080Z,17.52
2023-04-21T13:09:35.654Z,17.60
2023-04-21T13:12:02.212Z,17.66
2023-04-21T13:14:29.240Z,17.53
2023-04-21T13:16:57.994Z,17.48
2023-04-21T13:19:24.906Z,17.61
2023-04-21T13:21:53.992Z,17.69
2023-04-21T13:24:21.256Z,17.91
2023-04-21T13:26:47.740Z,17.95
2023-04-21T13:29:14.441Z,18.00
2023-04-21T13:31:41.017Z,17.77
2023-04-21T13:34:07.605Z,17.65
2023-04-21T13:36:34.036Z,17.66
2023-04-21T13:39:01.830Z,17.78
2023-04-21T13:41:28.346Z,17.97
2023-04-21T13:43:54.773Z,17.78
2023-04-21T13:46:21.246Z,17.86
2023-04-21T13:48:48.651Z,17.71
2023-04-21T13:51:15.319Z,17.60
2023-04-21T13:53:41.857Z,17.61
2023-04-21T13:56:10.111Z,17.69
2023-04-21T13:58:36.663Z,17.74
2023-04-21T14:01:04.082Z,17.68
2023-04-21T14:03:31.216Z,17.64
2023-04-21T14:05:57.987Z,17.85
2023-04-21T14:08:24.766Z,17.92
2023-04-21T14:10:51.210Z,17.87
2023-04-21T14:15:50.323Z,17.97
2023-04-21T14:18:16.892Z,17.99
2023-04-21T14:20:45.898Z,17.90
2023-04-21T14:23:13.538Z,17.85
2023-04-21T14:25:40.308Z,17.87
2023-04-21T14:28:08.309Z,17.86
2023-04-21T14:30:36.315Z,17.81
2023-04-21T14:33:10.497Z,17.85
2023-04-21T14:35:37.757Z,17.82
2023-04-21T14:38:09.914Z,17.77
2023-04-21T14:40:39.632Z,17.67
2023-04-21T14:43:06.207Z,17.68
2023-04-21T14:45:32.788Z,17.61
2023-04-21T14:47:59.410Z,17.54
2023-04-21T14:50:25.956Z,17.51
2023-04-21T14:52:52.423Z,17.51
2023-04-21T14:55:19.125Z,17.54
2023-04-21T14:57:47.023Z,17.65
2023-04-21T15:00:13.987Z,17.63
2023-04-21T15:02:41.150Z,17.67
2023-04-21T15:05:08.821Z,17.75
2023-04-21T15:07:35.954Z,17.72
2023-04-21T15:10:02.454Z,17.72
2023-04-21T15:12:28.922Z,17.61
2023-04-21T15:14:55.494Z,17.64
2023-04-21T15:17:21.967Z,17.64
2023-04-21T15:19:51.242Z,17.60
2023-04-21T15:22:17.917Z,17.58
2023-04-21T15:24:45.471Z,17.51
2023-04-21T15:27:11.939Z,17.51
2023-04-21T15:29:38.491Z,17.57
2023-04-21T15:32:05.065Z,17.62
2023-04-21T15:34:31.550Z,17.56
2023-04-21T15:36:58.136Z,17.50
2023-04-21T15:39:24.545Z,17.42
2023-04-21T15:41:51.323Z,17.38
2023-04-21T15:44:17.730Z,17.42
2023-04-21T15:46:44.280Z,17.45
2023-04-21T15:49:10.888Z,17.34
2023-04-21T15:51:37.754Z,17.34
2023-04-21T15:54:04.910Z,17.37
2023-04-21T15:56:31.311Z,17.38
2023-04-21T15:58:57.851Z,17.31
2023-04-21T16:01:24.548Z,17.32
2023-04-21T16:03:51.996Z,17.20
2023-04-21T16:06:20.806Z,17.20
2023-04-21T16:08:47.442Z,17.15
2023-04-21T16:11:13.980Z,17.09
2023-04-21T16:13:40.577Z,17.10
2023-04-21T16:16:07.102Z,17.11
2023-04-21T16:18:33.678Z,17.09
2023-04-21T16:21:00.314Z,17.04
2023-04-21T16:23:30.116Z,17.03
2023-04-21T16:25:56.664Z,17.05
2023-04-21T16:28:23.177Z,17.01
2023-04-21T16:30:50.071Z,16.98
2023-04-21T16:33:16.933Z,17.00
2023-04-21T16:35:43.491Z,16.99
2023-04-21T16:38:09.940Z,16.97
2023-04-21T16:40:36.645Z,16.93
2023-04-21T16:43:03.106Z,16.86
2023-04-21T16:45:29.791Z,16.82
2023-04-21T16:47:56.741Z,16.85
2023-04-21T16:50:23.513Z,16.84
2023-04-21T16:52:50.072Z,16.82
2023-04-21T16:55:16.551Z,16.81
2023-04-21T16:57:43.312Z,16.84
2023-04-21T17:00:10.566Z,16.82
2023-04-21T17:02:37.197Z,16.79
2023-04-21T17:05:04.167Z,16.61
2023-04-21T17:07:33.965Z,16.26
2023-04-21T17:10:00.543Z,15.99
2023-04-21T17:12:27.875Z,15.80
2023-04-21T17:14:54.290Z,15.73
2023-04-21T17:17:20.756Z,15.67
2023-04-21T17:19:47.188Z,15.63
2023-04-21T17:22:13.819Z,15.59
2023-04-21T17:24:52.526Z,15.55
2023-04-21T17:27:21.572Z,15.57
2023-04-21T17:29:49.546Z,15.58
2023-04-21T17:32:18.310Z,15.56
2023-04-21T17:34:45.871Z,15.58
2023-04-21T17:37:13.270Z,15.50
2023-04-21T17:39:46.971Z,15.41
2023-04-21T17:42:13.628Z,15.33
2023-04-21T17:44:41.412Z,15.23
2023-04-21T17:47:10.475Z,15.20
2023-04-21T17:49:38.040Z,15.17
2023-04-21T17:52:08.689Z,15.17
2023-04-21T17:54:37.470Z,15.13
2023-04-21T17:57:04.471Z,15.12
2023-04-21T17:59:32.169Z,15.10
2023-04-21T18:02:01.451Z,15.03
2023-04-21T18:04:30.862Z,15.04
2023-04-21T18:06:59.446Z,15.03
2023-04-21T18:09:26.934Z,15.02
2023-04-21T18:11:58.151Z,15.03
2023-04-21T18:14:26.354Z,14.98
2023-04-21T18:16:57.336Z,14.84
2023-04-21T18:19:30.157Z,14.80
2023-04-21T18:21:57.279Z,14.82
2023-04-21T18:24:24.854Z,14.87
2023-04-21T18:26:51.321Z,14.87
2023-04-21T18:29:19.380Z,14.86
2023-04-21T18:31:47.071Z,14.84
2023-04-21T18:34:14.556Z,14.89
2023-04-21T18:36:43.901Z,14.88
2023-04-21T18:39:11.048Z,14.88
2023-04-21T18:41:38.010Z,14.81
2023-04-21T18:44:05.806Z,14.75
2023-04-21T18:46:33.159Z,14.81
2023-04-21T18:48:59.719Z,14.78
2023-04-21T18:51:27.677Z,14.80
2023-04-21T18:53:54.157Z,14.76
2023-04-21T18:56:20.640Z,14.73
2023-04-21T18:58:47.128Z,14.69
2023-04-21T19:01:13.584Z,14.63
2023-04-21T19:03:40.217Z,14.58
2023-04-21T19:06:06.764Z,14.56
2023-04-21T19:08:42.281Z,14.55
2023-04-21T19:11:11.168Z,14.59
2023-04-21T19:13:38.867Z,14.63
2023-04-21T19:16:05.503Z,14.63
2023-04-21T19:18:32.205Z,14.58
2023-04-21T19:20:58.629Z,14.60
2023-04-21T19:23:25.127Z,14.61
2023-04-21T19:25:54.561Z,14.66
2023-04-21T19:28:21.609Z,14.63
2023-04-21T19:30:48.771Z,14.58
2023-04-21T19:33:15.882Z,14.52
2023-04-21T19:35:42.886Z,14.49
2023-04-21T19:38:09.939Z,14.46
2023-04-21T19:40:36.459Z,14.42
2023-04-21T19:43:04.481Z,14.39
2023-04-21T19:45:31.026Z,14.42
2023-04-21T19:47:57.435Z,14.43
2023-04-21T19:50:23.890Z,14.41
2023-04-21T19:52:50.307Z,14.36
2023-04-21T19:55:17.045Z,14.32
2023-04-21T19:57:43.445Z,14.26
2023-04-21T20:00:11.424Z,14.20
2023-04-21T20:02:37.923Z,14.17
2023-04-21T20:05:04.880Z,14.18
2023-04-21T20:07:31.407Z,14.15
2023-04-21T20:09:57.798Z,14.13
2023-04-21T20:12:24.649Z,14.17
2023-04-21T20:14:52.382Z,14.25
2023-04-21T20:17:18.848Z,14.27
2023-04-21T20:19:46.787Z,14.28
2023-04-21T20:22:13.464Z,14.32
2023-04-21T20:24:41.733Z,14.28
2023-04-21T20:27:08.974Z,14.16
2023-04-21T20:29:35.887Z,14.10
2023-04-21T20:32:02.634Z,14.06
2023-04-21T20:34:29.169Z,14.02
2023-04-21T20:36:55.786Z,14.01
2023-04-21T20:39:23.484Z,13.99
2023-04-21T20:42:00.967Z,13.95
2023-04-21T20:44:37.115Z,13.98
2023-04-21T20:47:04.324Z,14.00
2023-04-21T20:49:31.448Z,13.97
2023-04-21T20:51:58.977Z,13.94
2023-04-21T20:54:26.071Z,13.92
2023-04-21T20:56:53.051Z,13.95
2023-04-21T20:59:19.919Z,14.02
2023-04-21T21:01:46.819Z,13.94
2023-04-21T21:04:13.658Z,13.85
2023-04-21T21:06:40.238Z,13.78
2023-04-21T21:09:06.766Z,13.73
2023-04-21T21:11:33.172Z,13.70
2023-04-21T21:13:59.586Z,13.65
2023-04-21T21:16:26.947Z,13.58
2023-04-21T21:18:53.406Z,13.54
2023-04-21T21:21:19.851Z,13.55
2023-04-21T21:23:46.296Z,13.50
2023-04-21T21:26:12.753Z,13.45
2023-04-21T21:28:39.196Z,13.39
2023-04-21T21:31:05.991Z,13.37
2023-04-21T21:33:32.386Z,13.38
2023-04-21T21:35:59.072Z,13.41
2023-04-21T21:38:25.506Z,13.45
2023-04-21T21:40:51.882Z,13.47
2023-04-21T21:43:18.338Z,13.51
2023-04-21T21:45:44.801Z,13.53
2023-04-21T21:48:11.365Z,13.49
2023-04-21T21:50:37.813Z,13.46
2023-04-21T21:53:04.229Z,13.53
2023-04-21T21:55:30.660Z,13.57
2023-04-21T21:57:57.177Z,13.51
2023-04-21T22:00:23.844Z,13.48
2023-04-21T22:02:50.449Z,13.47
2023-04-21T22:05:17.551Z,13.37
2023-04-21T22:07:43.969Z,13.29
2023-04-21T22:10:11.355Z,13.31
2023-04-21T22:12:37.940Z,13.29
2023-04-21T22:15:04.962Z,13.24
2023-04-21T22:17:31.495Z,13.26
2023-04-21T22:19:57.965Z,13.26
2023-04-21T22:22:24.355Z,13.23
2023-04-21T22:24:50.775Z,13.21
2023-04-21T22:27:17.265Z,13.15
2023-04-21T22:29:43.731Z,13.09
2023-04-21T22:32:10.534Z,13.07
2023-04-21T22:34:36.958Z,13.06
2023-04-21T22:37:05.613Z,13.06
2023-04-21T22:39:32.041Z,13.06
2023-04-21T22:41:58.568Z,13.11
2023-04-21T22:44:25.067Z,13.06
2023-04-21T22:46:52.943Z,13.04
2023-04-21T22:49:19.501Z,13.04
2023-04-21T22:51:47.200Z,13.03
2023-04-21T22:54:13.581Z,13.06
2023-04-21T22:56:40.007Z,13.14
2023-04-21T22:59:06.443Z,13.07
2023-04-21T23:01:33.010Z,13.07
2023-04-21T23:03:59.896Z,13.16
2023-04-21T23:06:26.647Z,13.25
2023-04-21T23:08:53.013Z,13.27
2023-04-21T23:11:19.455Z,13.18
2023-04-21T23:13:45.847Z,13.15
2023-04-21T23:16:12.356Z,13.03
2023-04-21T23:18:38.820Z,12.97
2023-04-21T23:21:05.253Z,13.06
2023-04-21T23:23:31.881Z,13.12
2023-04-21T23:25:58.267Z,13.17
2023-04-21T23:28:24.895Z,13.14
2023-04-21T23:30:51.333Z,13.09
2023-04-21T23:33:17.804Z,13.06
2023-04-21T23:35:44.465Z,13.04
2023-04-21T23:38:10.905Z,13.01
2023-04-21T23:40:37.308Z,13.00
2023-04-21T23:43:03.859Z,12.98
2023-04-21T23:45:30.341Z,12.95
2023-04-21T23:47:56.759Z,12.97
2023-04-21T23:50:23.346Z,12.97
2023-04-21T23:52:49.927Z,13.00
2023-04-21T23:55:16.487Z,13.03
2023-04-21T23:57:44.877Z,12.94
